LSMA Airport Information

Runway Information
Runway 01 Length 4920 ft width 130 ft
Elevation 1460 ft Threshold 0 ft Heading 11
Runway 19 Length 4920 ft Width 130 ft
Elevation 1425 ft Threshold 0 ft Heading 191
Airport Frequencies
Type ARR Name ARR/DEP Frequency 33.787 MHZ
Type ARR Name ARR/DEP Frequency 139.45 MHZ
Type INFO Name INFO Frequency 138.05 MHZ
Type TWR Name TWR Frequency 119.625 MHZ
Airport Navaids
Airport Weather Information & NOTAM
ADDS - METARS form results

(0936 UTC 23 July 2018)
 
METAR text: LSMA 230920Z 00000KT 9999 FEW055 22/16 Q1019 RMK BLU+
Conditions at: LSMA (ALPNACH , CH) observed 0920 UTC 23 July 2018
Temperature: 22.0°C (72°F)
Dewpoint: 16.0°C (61°F) [RH = 69%]
Pressure (altimeter): 30.09 inches Hg (1019.0 mb)
Winds: calm
Visibility: 6 or more miles (10+ km)
Ceiling: at least 12,000 feet AGL
Clouds: few clouds at 5500 feet AGL
Weather: no significant weather observed at this time

METAR text: LSMA 230850Z 00000KT 9999 FEW055 BKN088 20/16 Q1019 RMK BLU
Conditions at: LSMA (ALPNACH , CH) observed 0850 UTC 23 July 2018
Temperature: 20.0°C (68°F)
Dewpoint: 16.0°C (61°F) [RH = 78%]
Pressure (altimeter): 30.09 inches Hg (1019.0 mb)
Winds: calm
Visibility: 6 or more miles (10+ km)
Ceiling: 8800 feet AGL
Clouds: few clouds at 5500 feet AGL
broken clouds at 8800 feet AGL
Weather: no significant weather observed at this time